Time;durP1;ratioP1;P1;durP2;ratioP2;P2;SDS_P1;SDS_P2;PMS_P1;PMS_P2;Temp;Humidity;BMP_temperature;BMP_pressure;BME280_temperature;BME280_humidity;BME280_pressure;Samples;Min_cycle;Max_cycle;Signal;HPM_P1;HPM_P2
2023/02/17 00:01:48;;;;;;;106.10;53.10;;;;;;;2.77;83.20;100382.90;103284;1257;138565;-66
2023/02/17 00:04:18;;;;;;;100.50;53.60;;;;;;;2.77;83.22;100374.32;103499;1257;96953;-66
2023/02/17 00:06:48;;;;;;;104.30;54.50;;;;;;;2.78;83.48;100372.60;103635;1254;138635;-66
2023/02/17 00:09:19;;;;;;;105.00;54.20;;;;;;;2.79;83.60;100367.11;103385;1254;96335;-66
2023/02/17 00:11:54;;;;;;;;;;;;;;;2.81;83.56;100367.98;103487;1253;111628;-66
2023/02/17 00:14:21;;;;;;;98.50;51.70;;;;;;;2.81;83.57;100365.39;103236;1254;124789;-66
2023/02/17 00:16:48;;;;;;;100.40;54.40;;;;;;;2.81;83.66;100361.44;103396;1254;96957;-66
2023/02/17 00:19:24;;;;;;;107.00;53.70;;;;;;;2.84;83.68;100364.36;103226;1254;138348;-66
2023/02/17 00:22:03;;;;;;;96.40;52.60;;;;;;;2.86;83.66;100356.80;103371;1257;96414;-66
2023/02/17 00:24:37;;;;;;;100.00;52.90;;;;;;;2.88;83.64;100361.81;103276;1257;138832;-66
2023/02/17 00:27:25;;;;;;;97.10;51.80;;;;;;;2.90;83.63;100358.02;103382;1254;106634;-66
2023/02/17 00:29:52;;;;;;;103.40;52.60;;;;;;;2.91;83.59;100361.46;102647;1257;1003821;-66
2023/02/17 00:32:40;;;;;;;101.40;53.90;;;;;;;2.91;83.49;100357.17;103258;1254;139139;-66
2023/02/17 00:35:23;;;;;;;106.60;52.20;;;;;;;2.91;83.56;100354.25;103304;1254;96405;-67
2023/02/17 00:37:50;;;;;;;97.10;52.60;;;;;;;2.91;83.41;100352.70;103225;1254;138490;-67
2023/02/17 00:40:20;;;;;;;100.80;53.00;;;;;;;2.92;83.69;100349.79;103310;1258;106581;-67
2023/02/17 00:42:53;;;;;;;100.70;54.40;;;;;;;2.93;83.62;100344.11;103662;1253;138911;-67
2023/02/17 00:45:41;;;;;;;101.60;52.90;;;;;;;2.95;83.54;100343.60;103823;1256;107894;-67
2023/02/17 00:48:29;;;;;;;99.00;50.90;;;;;;;2.94;83.52;100339.13;103446;1252;138708;-67
2023/02/17 00:50:59;;;;;;;99.20;51.50;;;;;;;2.95;83.62;100341.70;103380;1254;110428;-66
2023/02/17 00:53:30;;;;;;;100.30;52.20;;;;;;;2.96;83.61;100340.52;103368;1253;107777;-67
2023/02/17 00:56:08;;;;;;;103.40;53.00;;;;;;;2.96;83.61;100335.01;103010;1253;453472;-67
2023/02/17 00:58:55;;;;;;;98.40;51.80;;;;;;;2.97;83.48;100334.66;102691;1253;1003615;-67
2023/02/17 01:01:43;;;;;;;95.80;51.00;;;;;;;2.98;83.63;100330.02;103413;1256;138483;-66
2023/02/17 01:04:21;;;;;;;98.40;50.70;;;;;;;3.00;83.60;100330.54;102635;1254;1003598;-67
2023/02/17 01:06:51;;;;;;;101.50;51.30;;;;;;;3.01;83.80;100325.39;103298;1253;139752;-66
2023/02/17 01:09:28;;;;;;;95.90;50.20;;;;;;;3.02;83.48;100325.55;102644;1256;1003546;-67
2023/02/17 01:12:10;;;;;;;101.50;53.30;;;;;;;3.03;83.61;100323.31;103347;1253;109518;-67
2023/02/17 01:14:41;;;;;;;98.80;50.50;;;;;;;3.05;83.66;100322.98;103412;1252;1002163;-66
2023/02/17 01:17:08;;;;;;;96.20;50.90;;;;;;;3.07;83.72;100314.40;103399;1253;110253;-66
2023/02/17 01:19:46;;;;;;;100.10;51.30;;;;;;;3.08;83.44;100317.15;103256;1253;138390;-66
2023/02/17 01:22:15;;;;;;;103.50;52.30;;;;;;;3.10;83.44;100313.20;102658;1253;1002914;-67
2023/02/17 01:24:54;;;;;;;100.90;52.40;;;;;;;3.12;83.62;100308.90;102568;1256;1003107;-66
2023/02/17 01:27:30;;;;;;;98.90;50.50;;;;;;;3.13;83.71;100302.02;103595;1253;96413;-66
2023/02/17 01:29:57;;;;;;;93.80;50.10;;;;;;;3.16;83.64;100296.86;102915;1253;1003746;-67
2023/02/17 01:32:32;;;;;;;96.80;51.10;;;;;;;3.17;83.65;100289.12;103377;1256;138364;-66
2023/02/17 01:35:19;;;;;;;93.30;49.70;;;;;;;3.18;83.55;100288.09;103612;1256;96514;-67
2023/02/17 01:37:46;;;;;;;98.20;49.00;;;;;;;3.19;83.56;100287.39;103432;1256;138491;-66
2023/02/17 01:40:17;;;;;;;96.30;49.40;;;;;;;3.21;83.40;100289.63;103527;1253;96593;-67
2023/02/17 01:42:46;;;;;;;97.00;50.40;;;;;;;3.21;83.47;100281.89;103494;1253;139172;-66
2023/02/17 01:45:37;;;;;;;96.60;51.60;;;;;;;3.23;83.50;100280.01;103516;1257;108505;-67
2023/02/17 01:48:10;;;;;;;95.40;50.20;;;;;;;3.24;83.32;100277.44;103569;1253;96431;-67
2023/02/17 01:50:40;;;;;;;99.10;50.60;;;;;;;3.25;83.29;100284.31;103540;1253;138584;-66
2023/02/17 01:53:09;;;;;;;89.30;48.60;;;;;;;3.27;83.47;100285.34;103466;1253;96494;-67
2023/02/17 01:55:39;;;;;;;89.60;48.20;;;;;;;3.28;83.39;100286.02;103307;1253;138141;-66
2023/02/17 01:58:11;;;;;;;101.70;50.10;;;;;;;3.28;83.52;100285.16;103592;1253;107393;-66
2023/02/17 02:00:41;;;;;;;92.90;50.60;;;;;;;3.28;83.05;100278.13;103440;1254;138843;-67
2023/02/17 02:03:12;;;;;;;94.20;49.00;;;;;;;3.29;83.28;100277.94;103475;1252;108408;-66
2023/02/17 02:05:42;;;;;;;92.20;49.60;;;;;;;3.30;83.26;100275.02;102669;1253;1003833;-66
2023/02/17 02:08:14;;;;;;;89.30;47.60;;;;;;;3.31;83.26;100273.48;103503;1256;138555;-67
2023/02/17 02:10:41;;;;;;;92.10;48.50;;;;;;;3.31;83.18;100274.67;102803;1253;1003702;-66
2023/02/17 02:13:09;;;;;;;93.10;47.50;;;;;;;3.32;83.31;100271.05;103496;1252;138539;-66
2023/02/17 02:15:43;;;;;;;87.60;46.30;;;;;;;3.32;83.10;100268.81;103407;1254;107254;-66
2023/02/17 02:18:26;;;;;;;90.10;47.40;;;;;;;3.32;83.16;100267.28;103418;1257;96615;-66
2023/02/17 02:21:26;;;;;;;88.70;47.40;;;;;;;3.33;83.11;100262.63;103432;1253;111621;-66
2023/02/17 02:24:07;;;;;;;95.30;49.50;;;;;;;3.35;83.18;100259.54;103438;1253;108024;-66
2023/02/17 02:27:17;;;;;;;90.00;46.90;;;;;;;3.36;82.99;100258.50;103346;1253;138521;-66
2023/02/17 02:30:21;;;;;;;89.00;46.40;;;;;;;3.37;83.15;100260.20;103544;1253;107566;-66
2023/02/17 02:33:00;;;;;;;87.80;47.70;;;;;;;3.36;83.06;100258.33;103420;1257;96461;-66
2023/02/17 02:35:34;;;;;;;95.40;49.80;;;;;;;3.35;83.15;100259.02;103313;1253;110231;-66
2023/02/17 02:38:06;;;;;;;92.00;49.20;;;;;;;3.37;82.99;100259.00;103269;1257;138513;-65
2023/02/17 02:45:10;;;;;;;91.80;47.40;;;;;;;3.38;83.23;100259.86;103611;1253;1002702;-66
2023/02/17 02:47:51;;;;;;;89.10;47.90;;;;;;;3.37;83.21;100258.65;103530;1252;97509;-66
2023/02/17 02:50:31;;;;;;;93.30;48.30;;;;;;;3.39;83.32;100255.55;103464;1253;138216;-66
2023/02/17 02:53:08;;;;;;;;;;;;;;;3.41;83.43;100250.08;103478;1256;108094;-65
2023/02/17 02:55:52;;;;;;;89.80;47.30;;;;;;;3.42;83.29;100248.02;103257;1254;124486;-65
2023/02/17 02:58:29;;;;;;;84.90;46.20;;;;;;;3.43;83.20;100240.96;103368;1253;108658;-66
2023/02/17 03:01:03;;;;;;;88.30;47.00;;;;;;;3.44;83.30;100234.94;103368;1253;138561;-66
2023/02/17 03:03:41;;;;;;;91.60;47.40;;;;;;;3.47;83.45;100242.48;103523;1253;111050;-66
2023/02/17 03:06:27;;;;;;;86.50;46.90;;;;;;;3.48;83.23;100246.44;103404;1256;107986;-65
2023/02/17 03:09:05;;;;;;;86.40;46.90;;;;;;;3.50;83.30;100244.71;102731;1253;1002962;-66
2023/02/17 03:11:32;;;;;;;93.30;47.40;;;;;;;3.51;83.53;100244.19;102397;1253;1002855;-65
2023/02/17 03:14:22;;;;;;;91.00;46.50;;;;;;;3.52;83.50;100238.33;103691;1252;138651;-65
2023/02/17 03:17:10;;;;;;;91.70;47.00;;;;;;;3.53;83.32;100239.88;103448;1253;110142;-65
2023/02/17 03:19:41;;;;;;;92.30;47.50;;;;;;;3.55;83.61;100240.55;103542;1256;138357;-67
2023/02/17 03:22:15;;;;;;;87.70;47.60;;;;;;;3.58;83.54;100247.59;102574;1252;1003395;-67
2023/02/17 03:24:46;;;;;;;90.50;47.00;;;;;;;3.57;83.57;100248.96;103182;1256;138950;-67
2023/02/17 03:27:34;;;;;;;92.10;47.10;;;;;;;3.56;83.78;100249.83;103440;1256;96184;-67
2023/02/17 03:30:02;;;;;;;95.70;48.30;;;;;;;3.54;83.76;100247.44;103209;1253;110226;-67
2023/02/17 03:32:32;;;;;;;88.20;47.80;;;;;;;3.55;83.83;100247.43;103168;1253;138361;-65
2023/02/17 03:35:00;;;;;;;87.20;47.20;;;;;;;3.56;83.99;100243.48;103445;1253;96431;-67
2023/02/17 03:37:31;;;;;;;89.40;48.40;;;;;;;3.56;84.04;100245.02;103835;1256;138295;-65
2023/02/17 03:39:58;;;;;;;92.20;47.80;;;;;;;3.58;84.05;100244.31;103463;1253;96428;-65
2023/02/17 03:42:26;;;;;;;87.00;48.40;;;;;;;3.59;84.21;100243.83;103483;1253;110101;-65
2023/02/17 03:44:53;;;;;;;94.20;48.40;;;;;;;3.59;84.04;100245.20;103247;1253;138219;-65
2023/02/17 03:47:20;;;;;;;90.70;47.80;;;;;;;3.60;84.28;100251.73;103359;1257;96340;-65
2023/02/17 03:49:48;;;;;;;93.70;48.60;;;;;;;3.59;84.14;100254.83;103240;1254;138162;-65
2023/02/17 03:52:15;;;;;;;91.00;47.00;;;;;;;3.60;84.35;100252.94;104155;1253;95304;-65
2023/02/17 03:54:42;;;;;;;89.40;47.10;;;;;;;3.60;84.47;100251.05;102565;1254;1003034;-66
2023/02/17 03:57:10;;;;;;;88.90;47.60;;;;;;;3.61;84.57;100246.75;103235;1257;108755;-65
2023/02/17 03:59:40;;;;;;;83.50;46.40;;;;;;;3.61;84.69;100241.58;103734;1257;96453;-66
2023/02/17 04:02:10;;;;;;;86.80;46.10;;;;;;;3.62;84.61;100234.52;103279;1253;138206;-65
2023/02/17 04:04:38;;;;;;;92.40;48.80;;;;;;;3.63;84.78;100229.53;103408;1252;96478;-65
2023/02/17 04:07:05;;;;;;;95.50;48.90;;;;;;;3.63;84.82;100224.21;103089;1253;138293;-66
2023/02/17 04:09:32;;;;;;;96.10;48.50;;;;;;;3.64;84.87;100223.69;103269;1256;107649;-66
2023/02/17 04:12:03;;;;;;;91.70;47.60;;;;;;;3.63;85.16;100222.48;103345;1256;96447;-65
2023/02/17 04:14:51;;;;;;;95.40;48.80;;;;;;;3.63;85.15;100219.56;103138;1253;138594;-66
2023/02/17 04:17:18;;;;;;;93.70;47.70;;;;;;;3.63;85.22;100229.36;103530;1256;97674;-66
2023/02/17 04:19:46;;;;;;;90.50;47.80;;;;;;;3.63;85.55;100231.09;103245;1256;138265;-65
2023/02/17 04:22:15;;;;;;;94.10;48.00;;;;;;;3.63;85.67;100232.29;103324;1253;107668;-66
2023/02/17 04:24:56;;;;;;;88.30;48.00;;;;;;;3.63;85.84;100230.74;103247;1256;138535;-66
2023/02/17 04:27:24;;;;;;;93.30;48.20;;;;;;;3.63;85.89;100228.85;102640;1252;1002899;-65
2023/02/17 04:29:54;;;;;;;96.40;48.60;;;;;;;3.64;85.98;100229.19;103495;1256;97786;-66
2023/02/17 04:32:21;;;;;;;92.20;47.80;;;;;;;3.66;85.92;100229.17;103334;1256;138086;-66
2023/02/17 04:34:49;;;;;;;88.80;47.40;;;;;;;3.68;86.38;100221.25;103421;1253;107959;-65
2023/02/17 04:37:26;;;;;;;90.50;47.40;;;;;;;3.69;86.11;100217.98;103287;1256;138319;-66
2023/02/17 04:39:57;;;;;;;91.50;48.70;;;;;;;3.70;86.56;100210.41;103338;1253;107537;-66
2023/02/17 04:42:24;;;;;;;90.70;49.00;;;;;;;3.72;86.77;100205.23;103227;1258;96430;-66
2023/02/17 04:44:51;;;;;;;94.60;49.20;;;;;;;3.74;86.64;100208.14;103333;1253;137873;-65
2023/02/17 04:47:19;;;;;;;94.90;48.70;;;;;;;3.76;86.88;100208.48;103252;1256;107339;-66
2023/02/17 04:49:49;;;;;;;92.90;49.10;;;;;;;3.77;87.07;100204.69;103218;1254;138301;-66
2023/02/17 04:52:19;;;;;;;92.80;47.70;;;;;;;3.77;87.14;100210.20;103346;1253;107256;-65
2023/02/17 04:54:47;;;;;;;91.00;48.60;;;;;;;3.78;87.14;100208.14;103200;1253;138542;-66
2023/02/17 04:57:14;;;;;;;98.20;50.20;;;;;;;3.79;87.20;100203.33;103472;1256;109561;-66
2023/02/17 04:59:52;;;;;;;93.10;47.50;;;;;;;3.80;87.33;100193.35;103352;1253;108450;-66
2023/02/17 05:02:19;;;;;;;94.40;49.20;;;;;;;3.82;87.57;100180.42;103207;1253;138266;-66
2023/02/17 05:04:51;;;;;;;89.90;49.20;;;;;;;3.83;87.65;100171.83;103274;1253;108175;-66
2023/02/17 05:07:29;;;;;;;97.60;50.40;;;;;;;3.84;87.79;100174.73;103353;1253;138386;-66
2023/02/17 05:09:59;;;;;;;95.40;49.00;;;;;;;3.86;87.82;100178.34;103301;1253;111955;-66
2023/02/17 05:12:26;;;;;;;94.70;49.80;;;;;;;3.86;87.91;100180.73;103387;1253;109575;-66
2023/02/17 05:14:57;;;;;;;98.70;49.80;;;;;;;3.87;87.97;100179.36;103319;1256;138182;-66
2023/02/17 05:17:24;;;;;;;99.80;50.30;;;;;;;3.88;88.01;100172.65;103316;1253;108457;-66
2023/02/17 05:19:51;;;;;;;95.30;50.70;;;;;;;3.88;88.19;100178.32;103279;1256;138681;-66
2023/02/17 05:22:18;;;;;;;96.70;50.90;;;;;;;3.90;88.22;100179.17;103403;1256;108800;-66
2023/02/17 05:24:46;;;;;;;94.80;51.60;;;;;;;3.90;88.43;100172.29;103249;1256;138495;-66
2023/02/17 05:27:13;;;;;;;98.90;50.70;;;;;;;3.90;88.28;100167.81;103394;1257;96411;-66
2023/02/17 05:29:40;;;;;;;97.30;51.70;;;;;;;3.91;88.53;100165.58;103325;1256;109479;-67
2023/02/17 05:32:08;;;;;;;93.60;49.30;;;;;;;3.91;88.54;100165.40;103104;1256;138338;-65
2023/02/17 05:34:37;;;;;;;99.40;51.60;;;;;;;3.91;88.69;100164.18;103331;1253;109118;-66
2023/02/17 05:37:05;;;;;;;90.50;49.90;;;;;;;3.91;88.61;100157.30;103210;1257;139435;-67
2023/02/17 05:39:33;;;;;;;90.90;49.80;;;;;;;3.90;88.78;100159.21;103477;1253;96451;-66
2023/02/17 05:42:03;;;;;;;99.50;50.60;;;;;;;3.92;88.56;100163.84;103256;1253;107494;-65
2023/02/17 05:44:31;;;;;;;100.00;52.60;;;;;;;3.92;88.77;100162.45;103562;1256;138348;-65
2023/02/17 05:46:58;;;;;;;93.30;49.30;;;;;;;3.93;88.71;100158.15;103388;1256;110450;-65
2023/02/17 05:49:26;;;;;;;100.20;52.20;;;;;;;3.93;88.61;100155.58;103300;1253;138777;-66
2023/02/17 05:51:56;;;;;;;93.10;49.90;;;;;;;3.93;88.60;100155.57;103492;1253;98182;-66
2023/02/17 05:54:23;;;;;;;95.70;48.80;;;;;;;3.92;88.53;100153.17;102689;1253;1003026;-66
2023/02/17 05:56:51;;;;;;;94.20;50.00;;;;;;;3.92;88.34;100153.17;103533;1253;138250;-65
2023/02/17 05:59:23;;;;;;;98.80;49.90;;;;;;;3.91;88.53;100151.98;103227;1253;109687;-66
2023/02/17 06:01:50;;;;;;;89.80;48.00;;;;;;;3.91;88.51;100147.86;103143;1257;138587;-66
2023/02/17 06:04:17;;;;;;;93.80;48.90;;;;;;;3.90;88.53;100144.08;103295;1253;98142;-66
2023/02/17 06:06:45;;;;;;;94.30;50.80;;;;;;;3.89;88.63;100139.61;103270;1253;138252;-66
2023/02/17 06:09:12;;;;;;;101.20;50.00;;;;;;;3.89;88.40;100147.01;103338;1256;96425;-66
2023/02/17 06:11:40;;;;;;;92.50;48.60;;;;;;;3.88;88.31;100148.73;103426;1253;109406;-66
2023/02/17 06:14:10;;;;;;;95.50;50.00;;;;;;;3.85;88.42;100139.13;103199;1253;138444;-66
2023/02/17 06:16:38;;;;;;;101.60;49.90;;;;;;;3.87;88.40;100150.13;103464;1253;97455;-65
2023/02/17 06:19:05;;;;;;;95.60;49.70;;;;;;;3.87;88.40;100146.50;103326;1253;138531;-65
2023/02/17 06:21:33;;;;;;;93.80;48.30;;;;;;;3.88;88.46;100145.46;103394;1256;97303;-66
2023/02/17 06:24:00;;;;;;;87.40;47.70;;;;;;;3.89;88.32;100147.17;102653;1251;1003244;-66
2023/02/17 06:26:28;;;;;;;90.10;48.80;;;;;;;3.88;88.34;100149.77;103312;1256;138551;-66
2023/02/17 06:29:15;;;;;;;85.90;47.00;;;;;;;3.89;88.45;100153.20;103456;1252;96326;-67
2023/02/17 06:31:43;;;;;;;89.50;48.50;;;;;;;3.91;88.65;100150.77;103229;1253;138221;-67
2023/02/17 06:34:10;;;;;;;89.30;47.40;;;;;;;3.93;88.41;100151.96;103340;1253;96323;-68
2023/02/17 06:36:38;;;;;;;91.00;48.80;;;;;;;3.95;88.29;100152.48;103372;1253;138260;-68
2023/02/17 06:39:05;;;;;;;95.40;49.90;;;;;;;3.97;88.27;100146.63;103436;1256;108719;-66
2023/02/17 06:41:33;;;;;;;91.60;50.30;;;;;;;3.98;88.22;100144.73;103443;1254;97451;-67
2023/02/17 06:44:00;;;;;;;96.10;49.80;;;;;;;4.00;88.11;100144.36;103210;1253;138391;-67
2023/02/17 06:46:27;;;;;;;97.40;52.80;;;;;;;4.00;87.97;100135.76;102387;1257;1003293;-67
2023/02/17 06:48:54;;;;;;;90.90;50.40;;;;;;;4.02;87.86;100129.38;103237;1254;138653;-67
2023/02/17 06:51:22;;;;;;;96.40;49.50;;;;;;;4.02;87.73;100132.81;103370;1256;108409;-67
2023/02/17 06:53:49;;;;;;;90.70;48.60;;;;;;;4.01;87.33;100127.15;103406;1253;97329;-67
2023/02/17 06:56:17;;;;;;;87.80;48.50;;;;;;;4.03;87.46;100128.16;103241;1256;138201;-66
2023/02/17 06:58:47;;;;;;;87.80;48.60;;;;;;;4.05;87.32;100129.86;103187;1254;96453;-66
2023/02/17 07:01:19;;;;;;;91.40;48.80;;;;;;;4.10;87.33;100127.94;103374;1253;138279;-66
2023/02/17 07:03:47;;;;;;;87.70;47.70;;;;;;;4.15;87.17;100123.95;103373;1253;108527;-66
2023/02/17 07:06:15;;;;;;;85.00;47.40;;;;;;;4.20;87.10;100123.04;103414;1258;96358;-65
2023/02/17 07:08:42;;;;;;;88.20;47.30;;;;;;;4.25;86.93;100127.47;103193;1256;138201;-65
2023/02/17 07:11:12;;;;;;;92.90;46.90;;;;;;;4.29;86.62;100127.77;103412;1253;96461;-66
2023/02/17 07:13:40;;;;;;;81.60;45.00;;;;;;;4.32;86.33;100131.72;103119;1258;138515;-65
2023/02/17 07:16:12;;;;;;;83.00;45.10;;;;;;;4.37;86.12;100124.45;103359;1253;108667;-66
2023/02/17 07:18:40;;;;;;;81.30;45.40;;;;;;;4.42;86.12;100120.61;103297;1253;138797;-68
2023/02/17 07:21:10;;;;;;;85.70;47.40;;;;;;;4.50;85.99;100120.19;103228;1253;107035;-66
2023/02/17 07:23:38;;;;;;;85.20;46.30;;;;;;;4.59;85.80;100117.17;103153;1258;96336;-67
2023/02/17 07:26:08;;;;;;;86.10;45.00;;;;;;;4.70;85.64;100117.77;103475;1253;138276;-67
2023/02/17 07:28:35;;;;;;;84.00;44.80;;;;;;;4.87;85.53;100120.16;103705;1256;107171;-67
2023/02/17 07:31:08;;;;;;;80.00;43.80;;;;;;;5.01;84.99;100118.27;103185;1256;138618;-67
2023/02/17 07:33:37;;;;;;;80.10;44.00;;;;;;;5.09;84.40;100121.98;103346;1253;108036;-67
2023/02/17 07:36:09;;;;;;;81.80;43.30;;;;;;;5.15;84.28;100117.92;103651;1254;96568;-67
2023/02/17 07:38:38;;;;;;;78.70;43.20;;;;;;;5.23;84.06;100123.38;103308;1258;138218;-67
2023/02/17 07:41:09;;;;;;;74.50;41.80;;;;;;;5.27;83.50;100120.38;103416;1256;109399;-67
2023/02/17 07:43:36;;;;;;;75.10;41.80;;;;;;;5.24;83.25;100123.69;103336;1253;138358;-65
2023/02/17 07:46:04;;;;;;;70.50;41.10;;;;;;;5.19;82.72;100111.50;103351;1253;107411;-67
2023/02/17 07:48:33;;;;;;;76.60;39.90;;;;;;;5.16;82.62;100116.02;103832;1253;96462;-67
2023/02/17 07:51:06;;;;;;;73.20;41.20;;;;;;;5.15;82.50;100118.11;103532;1256;110319;-66
2023/02/17 07:53:34;;;;;;;72.90;40.30;;;;;;;5.15;82.41;100118.79;103454;1253;107439;-67
2023/02/17 07:56:04;;;;;;;75.20;41.30;;;;;;;5.17;82.53;100114.29;103282;1256;138930;-67
2023/02/17 07:58:33;;;;;;;72.30;40.30;;;;;;;5.18;82.50;100108.75;104042;1256;107104;-67
2023/02/17 08:01:04;;;;;;;70.50;40.10;;;;;;;5.21;82.30;100112.02;103201;1256;138811;-67
2023/02/17 08:03:32;;;;;;;76.00;41.60;;;;;;;5.21;82.19;100115.98;103368;1253;110925;-67
2023/02/17 08:05:59;;;;;;;72.90;40.40;;;;;;;5.24;82.23;100111.27;103313;1253;107646;-67
2023/02/17 08:14:11;;;;;;;72.20;40.30;;;;;;;5.34;81.59;100102.18;102744;1258;138736;-68
2023/02/17 08:16:39;;;;;;;72.40;38.50;;;;;;;5.37;81.45;100099.88;102908;1259;111426;-67
2023/02/17 08:19:07;;;;;;;66.40;36.90;;;;;;;5.39;81.49;100100.56;102045;1259;1003095;-67
2023/02/17 08:21:55;;;;;;;68.90;38.60;;;;;;;5.42;81.26;100094.84;102940;1259;97686;-67
2023/02/17 08:24:42;;;;;;;69.60;38.40;;;;;;;5.45;81.22;100098.24;102813;1259;138667;-68
2023/02/17 08:27:13;;;;;;;66.10;37.60;;;;;;;5.49;81.10;100101.98;102990;1259;97810;-67
2023/02/17 08:29:41;;;;;;;70.50;38.70;;;;;;;5.52;80.83;100099.70;102944;1259;111309;-68
2023/02/17 08:32:13;;;;;;;66.20;37.30;;;;;;;5.53;80.90;100094.67;102691;1262;139771;-68
2023/02/17 08:34:50;;;;;;;65.00;37.00;;;;;;;5.56;80.86;100090.84;102909;1259;97790;-69
2023/02/17 08:37:17;;;;;;;68.60;39.20;;;;;;;5.59;80.94;100088.05;102736;1264;138689;-67
2023/02/17 08:39:44;;;;;;;69.40;37.70;;;;;;;5.65;80.73;100087.27;102869;1262;99090;-69
2023/02/17 08:42:11;;;;;;;68.10;37.70;;;;;;;5.68;80.62;100081.70;102957;1259;111784;-68
2023/02/17 08:44:59;;;;;;;67.20;37.90;;;;;;;5.74;80.37;100078.67;102095;1262;1003165;-68
2023/02/17 08:47:26;;;;;;;68.10;36.50;;;;;;;5.78;80.29;100074.48;102874;1263;98498;-67
2023/02/17 08:49:55;;;;;;;66.10;37.30;;;;;;;5.86;80.33;100076.25;102812;1263;138475;-66
2023/02/17 08:52:22;;;;;;;64.40;35.30;;;;;;;5.94;80.01;100076.86;103201;1259;97809;-68
2023/02/17 08:54:51;;;;;;;67.50;36.20;;;;;;;5.99;79.93;100075.73;102540;1253;1003507;-67
2023/02/17 08:57:20;;;;;;;61.50;35.90;;;;;;;6.04;79.85;100077.02;103439;1256;108226;-66
2023/02/17 08:59:48;;;;;;;62.90;36.30;;;;;;;6.07;79.52;100069.73;102792;1253;1003470;-66
2023/02/17 09:02:16;;;;;;;61.10;35.70;;;;;;;6.09;79.51;100069.52;103331;1256;138697;-65
2023/02/17 09:04:53;;;;;;;60.40;36.00;;;;;;;6.11;79.49;100072.27;103368;1256;97653;-66
2023/02/17 09:07:20;;;;;;;64.70;36.60;;;;;;;6.15;79.60;100073.93;103428;1253;138393;-66
2023/02/17 09:09:48;;;;;;;62.30;35.40;;;;;;;6.20;79.63;100071.42;103448;1253;107378;-67
2023/02/17 09:12:35;;;;;;;58.80;35.20;;;;;;;6.20;79.40;100075.55;102645;1253;1003832;-67
2023/02/17 09:15:03;;;;;;;61.90;36.60;;;;;;;6.16;79.60;100072.52;103504;1253;107436;-68
2023/02/17 09:17:30;;;;;;;63.70;36.20;;;;;;;6.14;79.70;100074.96;104598;1253;95783;-67
2023/02/17 09:19:58;;;;;;;65.50;37.30;;;;;;;6.14;80.02;100068.42;103330;1254;138338;-67
2023/02/17 09:22:25;;;;;;;61.20;36.30;;;;;;;6.13;80.07;100071.88;103411;1252;108853;-67
2023/02/17 09:25:04;;;;;;;59.70;35.60;;;;;;;6.11;80.02;100066.04;103321;1253;139478;-67
2023/02/17 09:27:31;;;;;;;60.70;36.40;;;;;;;6.08;80.11;100064.01;103492;1252;108226;-67
2023/02/17 09:30:01;;;;;;;64.30;37.20;;;;;;;6.06;80.25;100061.63;103425;1253;97836;-68
2023/02/17 09:32:31;;;;;;;61.40;36.90;;;;;;;6.05;80.19;100054.39;103245;1254;138267;-67
2023/02/17 09:35:04;;;;;;;63.40;36.50;;;;;;;6.03;80.23;100053.20;103303;1257;107633;-67
2023/02/17 09:37:32;;;;;;;67.90;37.30;;;;;;;6.01;80.07;100050.67;103219;1253;138419;-68
2023/02/17 09:40:00;;;;;;;64.30;37.30;;;;;;;5.98;80.19;100049.52;103393;1256;108358;-67
2023/02/17 09:42:33;;;;;;;65.40;36.60;;;;;;;5.95;80.08;100047.48;103439;1252;97769;-69
2023/02/17 09:45:06;;;;;;;61.00;36.70;;;;;;;5.92;80.10;100043.41;103525;1256;111878;-67
2023/02/17 09:47:42;;;;;;;60.50;36.60;;;;;;;5.88;80.34;100039.11;103416;1259;108030;-66
2023/02/17 09:50:13;;;;;;;62.20;36.50;;;;;;;5.86;80.63;100031.38;103269;1252;138470;-68
2023/02/17 09:52:51;;;;;;;66.20;36.90;;;;;;;5.87;80.76;100028.42;103365;1253;107560;-68
2023/02/17 09:55:24;;;;;;;67.20;37.00;;;;;;;5.90;81.01;100023.05;103188;1253;139223;-68
2023/02/17 09:57:56;;;;;;;63.50;37.30;;;;;;;5.92;80.91;100018.20;103324;1256;110395;-67
2023/02/17 10:00:32;;;;;;;66.30;37.20;;;;;;;5.91;80.99;100013.89;103318;1253;107509;-67
2023/02/17 10:03:06;;;;;;;66.00;37.30;;;;;;;5.91;81.01;100015.62;103280;1256;138433;-67
2023/02/17 10:05:39;;;;;;;62.90;35.90;;;;;;;5.91;80.95;100012.01;103318;1255;107675;-67
2023/02/17 10:08:12;;;;;;;65.80;37.40;;;;;;;5.89;81.15;100016.84;103638;1253;138837;-67
2023/02/17 10:10:47;;;;;;;64.30;36.80;;;;;;;5.87;81.66;100013.59;103501;1253;111209;-66
2023/02/17 10:13:17;;;;;;;62.60;37.60;;;;;;;5.84;81.45;100017.10;103388;1256;138704;-67
2023/02/17 10:15:49;;;;;;;64.80;36.60;;;;;;;5.80;81.84;100018.03;103628;1252;97765;-67
2023/02/17 10:18:19;;;;;;;68.40;37.80;;;;;;;5.76;82.09;100017.07;104299;1253;107276;-66
2023/02/17 10:20:52;;;;;;;67.00;38.20;;;;;;;5.74;82.47;100013.12;103430;1257;138491;-66
2023/02/17 10:23:22;;;;;;;69.00;37.50;;;;;;;5.71;82.78;100008.69;104526;1256;111513;-67
2023/02/17 10:26:06;;;;;;;67.30;38.30;;;;;;;5.69;83.07;100005.77;103847;1253;138558;-67
2023/02/17 10:28:47;;;;;;;69.00;37.60;;;;;;;5.69;83.23;100004.40;103692;1253;97880;-68
2023/02/17 10:31:26;;;;;;;75.40;38.70;;;;;;;5.68;83.49;100000.61;103682;1253;139286;-67
2023/02/17 10:34:01;;;;;;;63.80;36.60;;;;;;;5.68;83.73;99999.07;103351;1256;98073;-68
2023/02/17 10:36:37;;;;;;;71.70;38.70;;;;;;;5.69;84.05;99993.54;103757;1253;111294;-66
2023/02/17 10:39:13;;;;;;;72.90;38.80;;;;;;;5.69;84.09;99986.80;103288;1253;107738;-66
2023/02/17 10:41:45;;;;;;;70.80;38.30;;;;;;;5.69;84.21;99978.52;103493;1254;97657;-66
2023/02/17 10:44:19;;;;;;;67.70;37.40;;;;;;;5.71;84.54;99976.42;103335;1256;138150;-66
2023/02/17 10:46:48;;;;;;;72.50;39.40;;;;;;;5.71;84.55;99963.84;103482;1256;97781;-69
2023/02/17 10:49:25;;;;;;;64.40;38.00;;;;;;;5.69;84.79;99961.27;104627;1253;138321;-68
2023/02/17 10:51:52;;;;;;;74.30;40.00;;;;;;;5.70;84.88;99956.08;103819;1253;107646;-67
2023/02/17 10:54:30;;;;;;;73.00;39.40;;;;;;;5.73;85.13;99952.23;103224;1256;97778;-67
2023/02/17 10:57:03;;;;;;;68.20;39.60;;;;;;;5.74;85.28;99950.16;103317;1255;109416;-67
2023/02/17 10:59:37;;;;;;;62.10;36.60;;;;;;;5.78;85.32;99946.30;102853;1254;99433;-67
2023/02/17 11:02:17;;;;;;;67.40;39.40;;;;;;;5.83;85.37;99943.96;103998;1254;138230;-66
2023/02/17 11:04:47;;;;;;;69.40;39.20;;;;;;;5.89;85.36;99935.23;102900;1253;108365;-66
2023/02/17 11:07:18;;;;;;;67.80;39.60;;;;;;;5.93;85.47;99932.95;103659;1254;139616;-66
2023/02/17 11:09:50;;;;;;;65.40;38.80;;;;;;;5.94;85.37;99923.95;103551;1256;107895;-66
2023/02/17 11:12:24;;;;;;;72.10;40.60;;;;;;;5.93;85.34;99916.73;103430;1254;99780;-67
2023/02/17 11:14:54;;;;;;;71.80;41.50;;;;;;;5.92;85.61;99913.97;103857;1256;138163;-66
2023/02/17 11:17:28;;;;;;;74.60;42.10;;;;;;;5.91;85.92;99908.62;103459;1256;107334;-66
2023/02/17 11:20:02;;;;;;;73.50;40.60;;;;;;;5.90;85.95;99900.38;103637;1254;138344;-67
2023/02/17 11:22:37;;;;;;;74.00;40.00;;;;;;;5.89;86.16;99890.36;103450;1256;108057;-66
2023/02/17 11:25:07;;;;;;;76.20;41.50;;;;;;;5.89;86.29;99883.80;103427;1256;138461;-67
2023/02/17 11:27:35;;;;;;;70.30;42.10;;;;;;;5.89;86.47;99880.35;103594;1254;110490;-66
2023/02/17 11:30:18;;;;;;;77.30;44.00;;;;;;;5.90;86.58;99870.86;103371;1253;107592;-67
2023/02/17 11:32:46;;;;;;;72.50;40.80;;;;;;;5.88;86.61;99864.48;103680;1256;138286;-67
2023/02/17 11:35:26;;;;;;;77.20;42.10;;;;;;;5.83;86.59;99857.87;102583;1254;1003472;-66